DW5342 Weather Reports


time (UTC)temp
C
wind
direction
speed
KPH
gust
KPH
rain 1hr
cm
rain 24hr
cm
rain mn
cm
humidity
%
barometer
mb
20260503184516 16 277 8.0 17.7 0.00 0.03 0.00 43 1017.0
20260503183015 15 266 9.7 24.1 0.00 0.03 0.00 49 1017.2
20260503181534 16 274 0.0 19.3 0.00 0.03 0.00 45 1017.3
20260503180024 16 283 12.9 19.3 0.00 0.03 0.00 46 1017.4
20260503174512 16 294 6.4 20.9 0.00 0.10 0.00 49 1017.3
20260503173011 15 286 8.0 17.7 0.00 0.10 0.00 50 1017.4
20260503171521 15 345 9.7 22.5 0.00 0.10 0.00 46 1017.4
20260503081555 8 277 4.8 14.5 0.00 0.71 0.00 88 1013.7
20260503071547 9 260 4.8 11.3 0.00 1.42 0.00 88 1013.0
20260503054539 10 253 3.2 8.0 0.00 1.45 0.00 84 1012.4
20260503053033 10 252 1.6 8.0 0.00 1.45 0.00 82 1012.4
20260503051535 11 301 0.0 4.8 0.00 1.45 0.00 81 1012.4
20260503050031 11 301 0.0 8.0 0.00 1.45 0.00 79 1012.4
20260503044530 11 310 1.6 6.4 0.00 1.45 0.00 82 1012.3
20260503043027 11 304 0.0 3.2 0.00 1.45 0.00 81 1012.4
20260503041528 11 295 0.0 6.4 0.00 1.45 0.00 81 1012.4
20260503040031 11 316 0.0 4.8 0.00 1.45 0.00 82 1012.3
20260503034523 11 348 1.6 8.0 0.00 1.45 1.45 82 1012.2
20260503033023 11 312 0.0 6.4 0.00 1.45 1.45 83 1012.2
20260503031522 11 305 0.0 6.4 0.00 1.45 1.45 84 1012.0
20260503030022 11 311 1.6 6.4 0.00 1.45 1.45 85 1012.2
20260503024520 11 287 1.6 4.8 0.00 1.45 1.45 86 1012.5
20260503023019 11 274 0.0 1.6 0.00 1.45 1.45 85 1012.3
20260503021520 11 53 1.6 11.3 0.00 1.45 1.45 83 1012.1
20260503020018 11 27 3.2 14.5 0.00 1.45 1.45 87 1012.4
20260503014517 11 14 0.0 8.0 0.00 1.50 1.45 88 1012.3
20260503013017 11 295 1.6 4.8 0.00 1.50 1.45 88 1012.1
20260503011527 11 4 0.0 4.8 0.00 1.50 1.45 87 1011.9
20260503010016 11 306 0.0 4.8 0.00 1.50 1.45 87 1011.8
20260503004515 11 315 0.0 4.8 0.00 1.52 1.45 86 1011.6
20260503003016 11 359 0.0 4.8 0.00 1.52 1.45 86 1011.3
20260503001515 11 328 0.0 6.4 0.00 1.52 1.45 86 1011.3
20260503000013 11 256 0.0 3.2 0.00 1.52 1.45 85 1011.1
20260502234529 11 286 0.0 6.4 0.00 1.52 1.45 84 1011.2
20260502233011 11 321 4.8 11.3 0.00 1.52 1.45 83 1010.9
20260502231512 11 310 1.6 9.7 0.00 1.52 1.45 84 1010.9
20260502230010 12 316 1.6 11.3 0.00 1.52 1.45 83 1010.7
20260502224513 12 16 3.2 9.7 0.00 1.52 1.45 85 1010.5
20260502223010 12 24 3.2 12.9 0.00 1.52 1.45 87 1010.5
20260502221509 12 8 6.4 14.5 0.00 1.52 1.45 86 1010.5
20260502220019 12 19 4.8 12.9 0.00 1.52 1.45 86 1010.6
20260502214508 12 62 1.6 14.5 0.00 1.52 1.45 86 1010.6
20260502213021 12 35 6.4 17.7 0.00 1.52 1.45 85 1010.6
20260502211507 12 82 6.4 17.7 0.00 1.52 1.45 86 1010.5
20260502210005 12 346 3.2 16.1 0.03 1.52 1.45 89 1010.4
20260502204505 12 51 3.2 6.4 0.03 1.52 1.45 90 1010.5
20260502203004 12 335 4.8 11.3 0.03 1.52 1.45 89 1010.1
20260502201503 12 64 9.7 14.5 0.00 1.50 1.42 87 1010.4
20260502200002 12 44 9.7 16.1 0.00 1.50 1.42 86 1010.4
20260502194501 12 66 12.9 20.9 0.00 1.50 1.42 86 1010.4
20260502193059 12 36 8.0 20.9 0.00 1.50 1.42 85 1010.9
20260502191616 12 38 14.5 22.5 0.00 1.50 1.42 83 1010.9
20260502190107 12 31 11.3 29.0 0.00 1.50 1.42 82 1010.9